Terminal Aerodrome Forecast
Issued by NWS Wakefield, VA

Home | Current Version | Previous Version | Text Only | Print | Product List | Glossary On
Versions: 1 2 3 4 5 6 7 8 9 10 11 12 13 14 15 16 17 18 19
000
FTUS41 KAKQ 200500
TAFRIC
TAF
KRIC 200539Z 2006/2106 05003KT P6SM SCT020 SCT100
     FM200700 05003KT 5SM BR BKN015
     FM201000 06003KT 3SM BR OVC006
     FM201330 13005KT P6SM BKN040=

USA.gov is the U.S. government's official web portal to all federal, state and local government web resources and services.